Terminal Aerodrome Forecast
Issued by NWS Sioux Falls, SD

Home | Current Version | Previous Version | Text Only | Print | Product List | Glossary On
Versions: 1 2 3 4 5 6 7 8 9 10 11 12 13 14
861
FTUS43 KFSD 280215 AAA
TAFFSD
TAF AMD
KFSD 280215Z 2802/2824 15007KT P6SM BKN050
     FM280600 12005KT P6SM SCT050 SCT100
     FM280900 36007KT 4SM BR OVC015
     FM281400 02007KT P6SM OVC015
     FM281800 36010KT P6SM OVC025=

USA.gov is the U.S. government's official web portal to all federal, state and local government web resources and services.